sensor_id;sensor_type;location;lat;lon;timestamp;P1;durP1;ratioP1;P2;durP2;ratioP2
21848;SDS011;11089;49.852;19.700;2023-04-09T00:00:19;59.17;;;25.02;;
21848;SDS011;11089;49.852;19.700;2023-04-09T00:03:20;55.05;;;24.20;;
21848;SDS011;11089;49.852;19.700;2023-04-09T00:06:21;56.85;;;24.70;;
21848;SDS011;11089;49.852;19.700;2023-04-09T00:09:22;57.33;;;24.17;;
21848;SDS011;11089;49.852;19.700;2023-04-09T00:12:23;54.15;;;24.58;;
21848;SDS011;11089;49.852;19.700;2023-04-09T00:15:24;51.65;;;24.23;;
21848;SDS011;11089;49.852;19.700;2023-04-09T00:18:25;56.58;;;24.15;;
21848;SDS011;11089;49.852;19.700;2023-04-09T00:21:26;56.95;;;24.23;;
21848;SDS011;11089;49.852;19.700;2023-04-09T00:24:27;56.78;;;24.30;;
21848;SDS011;11089;49.852;19.700;2023-04-09T00:27:27;56.97;;;25.63;;
21848;SDS011;11089;49.852;19.700;2023-04-09T00:30:28;57.83;;;25.63;;
21848;SDS011;11089;49.852;19.700;2023-04-09T00:33:30;52.50;;;24.17;;
21848;SDS011;11089;49.852;19.700;2023-04-09T00:36:31;59.03;;;25.65;;
21848;SDS011;11089;49.852;19.700;2023-04-09T00:39:32;60.55;;;26.20;;
21848;SDS011;11089;49.852;19.700;2023-04-09T00:42:33;62.17;;;27.02;;
21848;SDS011;11089;49.852;19.700;2023-04-09T00:45:35;64.13;;;24.67;;
21848;SDS011;11089;49.852;19.700;2023-04-09T00:48:37;54.38;;;22.95;;
21848;SDS011;11089;49.852;19.700;2023-04-09T00:51:38;54.00;;;23.40;;
21848;SDS011;11089;49.852;19.700;2023-04-09T00:54:40;56.85;;;24.33;;
21848;SDS011;11089;49.852;19.700;2023-04-09T00:57:41;54.95;;;23.50;;
21848;SDS011;11089;49.852;19.700;2023-04-09T01:00:42;55.20;;;24.23;;
21848;SDS011;11089;49.852;19.700;2023-04-09T01:03:43;55.97;;;24.30;;
21848;SDS011;11089;49.852;19.700;2023-04-09T01:16:54;64.22;;;28.63;;
21848;SDS011;11089;49.852;19.700;2023-04-09T01:20:08;70.43;;;29.27;;
21848;SDS011;11089;49.852;19.700;2023-04-09T01:30:06;66.88;;;29.27;;
21848;SDS011;11089;49.852;19.700;2023-04-09T01:33:08;67.22;;;30.60;;
21848;SDS011;11089;49.852;19.700;2023-04-09T01:36:11;73.75;;;30.90;;
21848;SDS011;11089;49.852;19.700;2023-04-09T01:39:13;71.60;;;30.67;;
21848;SDS011;11089;49.852;19.700;2023-04-09T01:42:14;64.72;;;29.10;;
21848;SDS011;11089;49.852;19.700;2023-04-09T01:45:16;70.90;;;30.88;;
21848;SDS011;11089;49.852;19.700;2023-04-09T01:48:18;71.45;;;33.63;;
21848;SDS011;11089;49.852;19.700;2023-04-09T01:51:19;64.78;;;30.00;;
21848;SDS011;11089;49.852;19.700;2023-04-09T01:54:21;71.15;;;31.33;;
21848;SDS011;11089;49.852;19.700;2023-04-09T01:57:22;68.15;;;31.48;;
21848;SDS011;11089;49.852;19.700;2023-04-09T02:00:23;74.07;;;30.40;;
21848;SDS011;11089;49.852;19.700;2023-04-09T02:03:33;73.88;;;31.65;;
21848;SDS011;11089;49.852;19.700;2023-04-09T02:06:50;72.35;;;31.55;;
21848;SDS011;11089;49.852;19.700;2023-04-09T02:09:58;73.22;;;30.05;;
21848;SDS011;11089;49.852;19.700;2023-04-09T02:13:00;74.47;;;31.65;;
21848;SDS011;11089;49.852;19.700;2023-04-09T02:16:05;77.20;;;33.50;;
21848;SDS011;11089;49.852;19.700;2023-04-09T02:19:07;72.88;;;31.13;;
21848;SDS011;11089;49.852;19.700;2023-04-09T02:22:09;67.32;;;28.90;;
21848;SDS011;11089;49.852;19.700;2023-04-09T02:25:10;70.63;;;30.50;;
21848;SDS011;11089;49.852;19.700;2023-04-09T02:28:12;67.18;;;30.15;;
21848;SDS011;11089;49.852;19.700;2023-04-09T02:31:13;66.80;;;30.38;;
21848;SDS011;11089;49.852;19.700;2023-04-09T02:34:13;70.20;;;32.70;;
21848;SDS011;11089;49.852;19.700;2023-04-09T02:37:14;70.03;;;31.52;;
21848;SDS011;11089;49.852;19.700;2023-04-09T02:40:17;69.72;;;30.30;;
21848;SDS011;11089;49.852;19.700;2023-04-09T02:43:18;69.63;;;30.52;;
21848;SDS011;11089;49.852;19.700;2023-04-09T02:46:19;68.22;;;30.33;;
21848;SDS011;11089;49.852;19.700;2023-04-09T02:49:20;69.60;;;30.60;;
21848;SDS011;11089;49.852;19.700;2023-04-09T02:52:21;69.57;;;30.60;;
21848;SDS011;11089;49.852;19.700;2023-04-09T02:55:23;61.05;;;26.33;;
21848;SDS011;11089;49.852;19.700;2023-04-09T02:58:24;58.80;;;27.77;;
21848;SDS011;11089;49.852;19.700;2023-04-09T03:01:25;63.10;;;29.10;;
21848;SDS011;11089;49.852;19.700;2023-04-09T03:04:26;61.47;;;27.30;;
21848;SDS011;11089;49.852;19.700;2023-04-09T03:07:27;54.03;;;26.17;;
21848;SDS011;11089;49.852;19.700;2023-04-09T03:10:28;62.63;;;27.73;;
21848;SDS011;11089;49.852;19.700;2023-04-09T03:13:29;55.13;;;26.35;;
21848;SDS011;11089;49.852;19.700;2023-04-09T03:16:30;54.88;;;25.20;;
21848;SDS011;11089;49.852;19.700;2023-04-09T03:19:31;52.67;;;24.23;;
21848;SDS011;11089;49.852;19.700;2023-04-09T03:22:35;49.20;;;22.60;;
21848;SDS011;11089;49.852;19.700;2023-04-09T03:25:37;52.28;;;22.83;;
21848;SDS011;11089;49.852;19.700;2023-04-09T03:28:38;50.33;;;23.00;;
21848;SDS011;11089;49.852;19.700;2023-04-09T03:31:39;48.30;;;21.83;;
21848;SDS011;11089;49.852;19.700;2023-04-09T03:34:39;50.63;;;22.25;;
21848;SDS011;11089;49.852;19.700;2023-04-09T03:37:40;42.88;;;20.88;;
21848;SDS011;11089;49.852;19.700;2023-04-09T03:40:41;48.70;;;22.05;;
21848;SDS011;11089;49.852;19.700;2023-04-09T03:43:42;44.50;;;20.73;;
21848;SDS011;11089;49.852;19.700;2023-04-09T03:46:43;50.22;;;22.27;;
21848;SDS011;11089;49.852;19.700;2023-04-09T03:49:44;44.53;;;20.35;;
21848;SDS011;11089;49.852;19.700;2023-04-09T03:52:45;46.85;;;21.02;;
21848;SDS011;11089;49.852;19.700;2023-04-09T03:55:46;46.00;;;21.45;;
21848;SDS011;11089;49.852;19.700;2023-04-09T03:58:47;47.40;;;21.27;;
21848;SDS011;11089;49.852;19.700;2023-04-09T04:01:48;46.75;;;19.83;;
21848;SDS011;11089;49.852;19.700;2023-04-09T04:04:49;47.65;;;20.92;;
21848;SDS011;11089;49.852;19.700;2023-04-09T04:07:51;48.10;;;21.20;;
21848;SDS011;11089;49.852;19.700;2023-04-09T04:10:53;47.90;;;22.20;;
21848;SDS011;11089;49.852;19.700;2023-04-09T04:13:54;49.13;;;22.60;;
21848;SDS011;11089;49.852;19.700;2023-04-09T04:16:55;53.10;;;23.15;;
21848;SDS011;11089;49.852;19.700;2023-04-09T04:19:56;47.13;;;21.38;;
21848;SDS011;11089;49.852;19.700;2023-04-09T04:22:57;43.17;;;21.85;;
21848;SDS011;11089;49.852;19.700;2023-04-09T04:25:58;44.95;;;21.65;;
21848;SDS011;11089;49.852;19.700;2023-04-09T04:28:59;45.83;;;21.25;;
21848;SDS011;11089;49.852;19.700;2023-04-09T04:32:00;49.25;;;21.75;;
21848;SDS011;11089;49.852;19.700;2023-04-09T04:35:01;51.15;;;22.20;;
21848;SDS011;11089;49.852;19.700;2023-04-09T04:38:02;44.58;;;20.83;;
21848;SDS011;11089;49.852;19.700;2023-04-09T04:41:03;48.55;;;21.67;;
21848;SDS011;11089;49.852;19.700;2023-04-09T04:44:04;46.47;;;21.88;;
21848;SDS011;11089;49.852;19.700;2023-04-09T04:47:05;42.13;;;20.00;;
21848;SDS011;11089;49.852;19.700;2023-04-09T04:50:06;45.50;;;20.90;;
21848;SDS011;11089;49.852;19.700;2023-04-09T04:53:08;49.63;;;22.50;;
21848;SDS011;11089;49.852;19.700;2023-04-09T04:56:14;45.63;;;20.33;;
21848;SDS011;11089;49.852;19.700;2023-04-09T04:59:15;45.15;;;20.05;;
21848;SDS011;11089;49.852;19.700;2023-04-09T05:02:16;45.08;;;21.02;;
21848;SDS011;11089;49.852;19.700;2023-04-09T05:05:17;45.90;;;20.65;;
21848;SDS011;11089;49.852;19.700;2023-04-09T05:08:18;42.60;;;20.52;;
21848;SDS011;11089;49.852;19.700;2023-04-09T05:11:19;59.92;;;25.88;;
21848;SDS011;11089;49.852;19.700;2023-04-09T05:14:21;55.25;;;24.17;;
21848;SDS011;11089;49.852;19.700;2023-04-09T05:17:22;56.88;;;25.52;;
21848;SDS011;11089;49.852;19.700;2023-04-09T05:20:23;59.33;;;25.83;;
21848;SDS011;11089;49.852;19.700;2023-04-09T05:23:26;56.08;;;26.00;;
21848;SDS011;11089;49.852;19.700;2023-04-09T05:26:27;56.00;;;26.27;;
21848;SDS011;11089;49.852;19.700;2023-04-09T05:29:29;63.95;;;28.75;;
21848;SDS011;11089;49.852;19.700;2023-04-09T05:32:29;67.93;;;29.48;;
21848;SDS011;11089;49.852;19.700;2023-04-09T05:35:30;63.97;;;29.17;;
21848;SDS011;11089;49.852;19.700;2023-04-09T05:38:31;63.67;;;29.17;;
21848;SDS011;11089;49.852;19.700;2023-04-09T05:41:33;76.28;;;34.00;;
21848;SDS011;11089;49.852;19.700;2023-04-09T05:44:36;81.68;;;35.53;;
21848;SDS011;11089;49.852;19.700;2023-04-09T05:47:37;85.03;;;36.58;;
21848;SDS011;11089;49.852;19.700;2023-04-09T05:50:38;83.75;;;36.63;;
21848;SDS011;11089;49.852;19.700;2023-04-09T05:53:39;78.38;;;35.25;;
21848;SDS011;11089;49.852;19.700;2023-04-09T05:56:41;83.35;;;37.10;;
21848;SDS011;11089;49.852;19.700;2023-04-09T05:59:42;80.82;;;38.15;;
21848;SDS011;11089;49.852;19.700;2023-04-09T06:02:43;84.10;;;38.17;;
21848;SDS011;11089;49.852;19.700;2023-04-09T06:05:44;85.75;;;39.08;;
21848;SDS011;11089;49.852;19.700;2023-04-09T06:08:45;75.93;;;36.60;;
21848;SDS011;11089;49.852;19.700;2023-04-09T06:11:46;81.32;;;35.78;;
21848;SDS011;11089;49.852;19.700;2023-04-09T06:14:47;75.15;;;34.95;;
21848;SDS011;11089;49.852;19.700;2023-04-09T06:17:48;77.57;;;34.92;;
21848;SDS011;11089;49.852;19.700;2023-04-09T06:20:49;80.13;;;34.50;;
21848;SDS011;11089;49.852;19.700;2023-04-09T06:24:00;76.70;;;34.28;;
21848;SDS011;11089;49.852;19.700;2023-04-09T06:27:01;74.07;;;33.92;;
21848;SDS011;11089;49.852;19.700;2023-04-09T06:30:02;67.03;;;31.27;;
21848;SDS011;11089;49.852;19.700;2023-04-09T06:33:03;69.53;;;32.63;;
21848;SDS011;11089;49.852;19.700;2023-04-09T06:36:04;68.18;;;30.58;;
21848;SDS011;11089;49.852;19.700;2023-04-09T06:39:05;62.88;;;30.02;;
21848;SDS011;11089;49.852;19.700;2023-04-09T06:42:06;64.65;;;31.13;;
21848;SDS011;11089;49.852;19.700;2023-04-09T06:45:07;69.22;;;30.65;;
21848;SDS011;11089;49.852;19.700;2023-04-09T06:48:08;72.07;;;31.98;;
21848;SDS011;11089;49.852;19.700;2023-04-09T06:51:10;72.30;;;32.83;;
21848;SDS011;11089;49.852;19.700;2023-04-09T06:54:11;65.80;;;31.90;;
21848;SDS011;11089;49.852;19.700;2023-04-09T06:57:12;63.70;;;31.67;;
21848;SDS011;11089;49.852;19.700;2023-04-09T07:00:13;70.60;;;31.90;;
21848;SDS011;11089;49.852;19.700;2023-04-09T07:03:14;64.78;;;30.48;;
21848;SDS011;11089;49.852;19.700;2023-04-09T07:06:15;58.80;;;28.55;;
21848;SDS011;11089;49.852;19.700;2023-04-09T07:09:16;58.13;;;27.92;;
21848;SDS011;11089;49.852;19.700;2023-04-09T07:12:50;60.42;;;29.17;;
21848;SDS011;11089;49.852;19.700;2023-04-09T07:15:45;60.13;;;27.33;;
21848;SDS011;11089;49.852;19.700;2023-04-09T07:18:45;52.92;;;27.17;;
21848;SDS011;11089;49.852;19.700;2023-04-09T07:21:46;53.58;;;25.58;;
21848;SDS011;11089;49.852;19.700;2023-04-09T07:24:48;49.20;;;23.75;;
21848;SDS011;11089;49.852;19.700;2023-04-09T07:27:53;45.45;;;22.42;;
21848;SDS011;11089;49.852;19.700;2023-04-09T07:30:53;50.53;;;23.88;;
21848;SDS011;11089;49.852;19.700;2023-04-09T07:33:54;43.58;;;22.48;;
21848;SDS011;11089;49.852;19.700;2023-04-09T07:36:55;47.25;;;24.63;;
21848;SDS011;11089;49.852;19.700;2023-04-09T07:39:56;45.67;;;23.42;;
21848;SDS011;11089;49.852;19.700;2023-04-09T07:42:57;46.08;;;23.73;;
21848;SDS011;11089;49.852;19.700;2023-04-09T07:45:58;49.22;;;24.45;;
21848;SDS011;11089;49.852;19.700;2023-04-09T07:48:59;52.50;;;25.90;;
21848;SDS011;11089;49.852;19.700;2023-04-09T07:52:00;46.78;;;23.48;;
21848;SDS011;11089;49.852;19.700;2023-04-09T07:55:01;45.15;;;22.98;;
21848;SDS011;11089;49.852;19.700;2023-04-09T07:58:02;42.28;;;22.77;;
21848;SDS011;11089;49.852;19.700;2023-04-09T08:01:05;45.90;;;22.67;;
21848;SDS011;11089;49.852;19.700;2023-04-09T08:04:05;42.05;;;21.63;;
21848;SDS011;11089;49.852;19.700;2023-04-09T08:07:06;46.53;;;23.50;;
21848;SDS011;11089;49.852;19.700;2023-04-09T08:10:07;48.30;;;22.65;;
21848;SDS011;11089;49.852;19.700;2023-04-09T08:13:14;48.15;;;23.63;;
21848;SDS011;11089;49.852;19.700;2023-04-09T08:16:15;45.35;;;23.25;;
21848;SDS011;11089;49.852;19.700;2023-04-09T08:19:16;44.60;;;22.92;;
21848;SDS011;11089;49.852;19.700;2023-04-09T08:22:18;46.60;;;23.00;;
21848;SDS011;11089;49.852;19.700;2023-04-09T08:25:19;46.00;;;22.40;;
21848;SDS011;11089;49.852;19.700;2023-04-09T08:28:20;41.00;;;21.58;;
21848;SDS011;11089;49.852;19.700;2023-04-09T08:31:21;41.63;;;20.90;;
21848;SDS011;11089;49.852;19.700;2023-04-09T08:34:22;43.92;;;21.88;;
21848;SDS011;11089;49.852;19.700;2023-04-09T08:37:23;46.28;;;22.25;;
21848;SDS011;11089;49.852;19.700;2023-04-09T08:40:24;45.72;;;22.60;;
21848;SDS011;11089;49.852;19.700;2023-04-09T08:43:24;41.03;;;21.17;;
21848;SDS011;11089;49.852;19.700;2023-04-09T08:46:27;38.05;;;19.73;;
21848;SDS011;11089;49.852;19.700;2023-04-09T08:49:28;36.33;;;19.52;;
21848;SDS011;11089;49.852;19.700;2023-04-09T08:52:30;39.67;;;21.10;;
21848;SDS011;11089;49.852;19.700;2023-04-09T08:55:33;39.45;;;20.40;;
21848;SDS011;11089;49.852;19.700;2023-04-09T08:58:34;39.88;;;20.80;;
21848;SDS011;11089;49.852;19.700;2023-04-09T09:01:35;39.60;;;20.70;;
21848;SDS011;11089;49.852;19.700;2023-04-09T09:04:43;38.72;;;20.65;;
21848;SDS011;11089;49.852;19.700;2023-04-09T09:07:53;41.50;;;21.55;;
21848;SDS011;11089;49.852;19.700;2023-04-09T09:10:54;42.53;;;20.73;;
21848;SDS011;11089;49.852;19.700;2023-04-09T09:17:05;38.38;;;20.20;;
21848;SDS011;11089;49.852;19.700;2023-04-09T09:20:17;39.50;;;20.17;;
21848;SDS011;11089;49.852;19.700;2023-04-09T09:23:33;36.38;;;19.60;;
21848;SDS011;11089;49.852;19.700;2023-04-09T09:26:36;35.50;;;19.83;;
21848;SDS011;11089;49.852;19.700;2023-04-09T09:29:40;33.38;;;18.80;;
21848;SDS011;11089;49.852;19.700;2023-04-09T09:32:41;34.85;;;18.92;;
21848;SDS011;11089;49.852;19.700;2023-04-09T09:35:49;30.52;;;17.00;;
21848;SDS011;11089;49.852;19.700;2023-04-09T09:38:52;22.90;;;14.23;;
21848;SDS011;11089;49.852;19.700;2023-04-09T09:42:05;23.23;;;13.60;;
21848;SDS011;11089;49.852;19.700;2023-04-09T09:45:16;22.63;;;13.60;;
21848;SDS011;11089;49.852;19.700;2023-04-09T09:48:18;21.38;;;13.02;;
21848;SDS011;11089;49.852;19.700;2023-04-09T09:51:21;23.70;;;13.70;;
21848;SDS011;11089;49.852;19.700;2023-04-09T09:54:26;21.77;;;13.27;;
21848;SDS011;11089;49.852;19.700;2023-04-09T09:57:33;21.75;;;13.45;;
21848;SDS011;11089;49.852;19.700;2023-04-09T10:00:41;21.73;;;13.57;;
21848;SDS011;11089;49.852;19.700;2023-04-09T10:03:45;25.63;;;14.65;;
21848;SDS011;11089;49.852;19.700;2023-04-09T10:06:49;21.83;;;13.52;;
21848;SDS011;11089;49.852;19.700;2023-04-09T10:09:51;22.50;;;14.57;;
21848;SDS011;11089;49.852;19.700;2023-04-09T10:12:55;22.15;;;13.93;;
21848;SDS011;11089;49.852;19.700;2023-04-09T10:15:57;22.02;;;14.07;;
21848;SDS011;11089;49.852;19.700;2023-04-09T10:18:59;22.02;;;13.70;;
21848;SDS011;11089;49.852;19.700;2023-04-09T10:22:08;25.30;;;14.00;;
21848;SDS011;11089;49.852;19.700;2023-04-09T10:25:11;22.65;;;13.73;;
21848;SDS011;11089;49.852;19.700;2023-04-09T10:28:16;23.60;;;14.85;;
21848;SDS011;11089;49.852;19.700;2023-04-09T10:31:17;20.25;;;12.40;;
21848;SDS011;11089;49.852;19.700;2023-04-09T10:34:25;24.92;;;14.02;;
21848;SDS011;11089;49.852;19.700;2023-04-09T10:37:27;22.17;;;13.93;;
21848;SDS011;11089;49.852;19.700;2023-04-09T10:40:29;22.45;;;13.88;;
21848;SDS011;11089;49.852;19.700;2023-04-09T10:43:30;23.55;;;13.60;;
21848;SDS011;11089;49.852;19.700;2023-04-09T10:46:35;24.23;;;14.15;;
21848;SDS011;11089;49.852;19.700;2023-04-09T10:49:40;26.70;;;15.65;;
21848;SDS011;11089;49.852;19.700;2023-04-09T10:52:41;27.48;;;14.95;;
21848;SDS011;11089;49.852;19.700;2023-04-09T10:55:47;24.55;;;15.55;;
21848;SDS011;11089;49.852;19.700;2023-04-09T10:58:50;22.30;;;14.05;;
21848;SDS011;11089;49.852;19.700;2023-04-09T11:01:51;22.27;;;13.75;;
21848;SDS011;11089;49.852;19.700;2023-04-09T11:08:21;25.02;;;15.00;;
21848;SDS011;11089;49.852;19.700;2023-04-09T11:11:25;25.98;;;15.05;;
21848;SDS011;11089;49.852;19.700;2023-04-09T11:14:26;23.20;;;14.50;;
21848;SDS011;11089;49.852;19.700;2023-04-09T11:17:27;26.77;;;14.70;;
21848;SDS011;11089;49.852;19.700;2023-04-09T11:20:28;23.77;;;14.48;;
21848;SDS011;11089;49.852;19.700;2023-04-09T11:23:30;22.17;;;14.35;;
21848;SDS011;11089;49.852;19.700;2023-04-09T11:26:35;23.70;;;14.73;;
21848;SDS011;11089;49.852;19.700;2023-04-09T11:29:36;25.02;;;14.73;;
21848;SDS011;11089;49.852;19.700;2023-04-09T11:32:37;24.20;;;14.82;;
21848;SDS011;11089;49.852;19.700;2023-04-09T11:35:38;20.73;;;13.45;;
21848;SDS011;11089;49.852;19.700;2023-04-09T11:38:39;23.17;;;13.98;;
21848;SDS011;11089;49.852;19.700;2023-04-09T11:41:40;23.63;;;15.25;;
21848;SDS011;11089;49.852;19.700;2023-04-09T11:44:45;25.33;;;14.75;;
21848;SDS011;11089;49.852;19.700;2023-04-09T11:47:48;25.30;;;15.25;;
21848;SDS011;11089;49.852;19.700;2023-04-09T11:50:50;25.27;;;15.38;;
21848;SDS011;11089;49.852;19.700;2023-04-09T11:53:51;27.58;;;14.77;;
21848;SDS011;11089;49.852;19.700;2023-04-09T11:56:53;24.27;;;14.80;;
21848;SDS011;11089;49.852;19.700;2023-04-09T11:59:55;27.08;;;15.55;;
21848;SDS011;11089;49.852;19.700;2023-04-09T12:03:02;25.25;;;15.98;;
21848;SDS011;11089;49.852;19.700;2023-04-09T12:06:04;24.05;;;14.57;;
21848;SDS011;11089;49.852;19.700;2023-04-09T12:09:07;22.80;;;14.20;;
21848;SDS011;11089;49.852;19.700;2023-04-09T12:12:08;25.05;;;15.05;;
21848;SDS011;11089;49.852;19.700;2023-04-09T12:15:20;24.15;;;14.25;;
21848;SDS011;11089;49.852;19.700;2023-04-09T12:18:24;22.77;;;14.25;;
21848;SDS011;11089;49.852;19.700;2023-04-09T12:21:25;28.15;;;15.82;;
21848;SDS011;11089;49.852;19.700;2023-04-09T12:24:44;26.50;;;16.00;;
21848;SDS011;11089;49.852;19.700;2023-04-09T12:27:45;25.00;;;15.27;;
21848;SDS011;11089;49.852;19.700;2023-04-09T12:30:46;23.67;;;15.15;;
21848;SDS011;11089;49.852;19.700;2023-04-09T12:33:48;24.65;;;14.85;;
21848;SDS011;11089;49.852;19.700;2023-04-09T12:36:49;23.75;;;13.85;;
21848;SDS011;11089;49.852;19.700;2023-04-09T12:39:50;22.27;;;14.20;;
21848;SDS011;11089;49.852;19.700;2023-04-09T12:42:51;20.83;;;13.20;;
21848;SDS011;11089;49.852;19.700;2023-04-09T12:45:53;22.15;;;13.02;;
21848;SDS011;11089;49.852;19.700;2023-04-09T12:48:54;21.98;;;14.00;;
21848;SDS011;11089;49.852;19.700;2023-04-09T12:51:55;22.23;;;13.93;;
21848;SDS011;11089;49.852;19.700;2023-04-09T12:54:56;21.85;;;13.27;;
21848;SDS011;11089;49.852;19.700;2023-04-09T12:57:57;19.13;;;12.82;;
21848;SDS011;11089;49.852;19.700;2023-04-09T13:00:58;20.73;;;13.52;;
21848;SDS011;11089;49.852;19.700;2023-04-09T13:03:59;20.13;;;12.82;;
21848;SDS011;11089;49.852;19.700;2023-04-09T13:07:00;19.90;;;13.45;;
21848;SDS011;11089;49.852;19.700;2023-04-09T13:10:01;21.38;;;12.25;;
21848;SDS011;11089;49.852;19.700;2023-04-09T13:13:02;19.83;;;12.23;;
21848;SDS011;11089;49.852;19.700;2023-04-09T13:16:03;18.33;;;11.98;;
21848;SDS011;11089;49.852;19.700;2023-04-09T13:19:05;18.95;;;12.55;;
21848;SDS011;11089;49.852;19.700;2023-04-09T13:22:06;20.73;;;13.43;;
21848;SDS011;11089;49.852;19.700;2023-04-09T13:25:08;20.83;;;13.00;;
21848;SDS011;11089;49.852;19.700;2023-04-09T13:28:09;19.33;;;13.13;;
21848;SDS011;11089;49.852;19.700;2023-04-09T13:31:10;22.75;;;13.93;;
21848;SDS011;11089;49.852;19.700;2023-04-09T13:34:11;21.90;;;13.35;;
21848;SDS011;11089;49.852;19.700;2023-04-09T13:37:12;21.98;;;14.00;;
21848;SDS011;11089;49.852;19.700;2023-04-09T13:40:13;21.48;;;13.48;;
21848;SDS011;11089;49.852;19.700;2023-04-09T13:43:13;20.85;;;13.95;;
21848;SDS011;11089;49.852;19.700;2023-04-09T13:46:14;22.15;;;13.90;;
21848;SDS011;11089;49.852;19.700;2023-04-09T13:49:16;21.90;;;13.85;;
21848;SDS011;11089;49.852;19.700;2023-04-09T13:52:16;20.70;;;12.98;;
21848;SDS011;11089;49.852;19.700;2023-04-09T13:55:18;22.67;;;13.43;;
21848;SDS011;11089;49.852;19.700;2023-04-09T13:58:19;21.85;;;13.32;;
21848;SDS011;11089;49.852;19.700;2023-04-09T14:01:21;23.50;;;13.23;;
21848;SDS011;11089;49.852;19.700;2023-04-09T14:04:23;24.83;;;13.52;;
21848;SDS011;11089;49.852;19.700;2023-04-09T14:07:24;19.55;;;12.68;;
21848;SDS011;11089;49.852;19.700;2023-04-09T14:10:25;22.42;;;13.55;;
21848;SDS011;11089;49.852;19.700;2023-04-09T14:13:26;21.77;;;12.95;;
21848;SDS011;11089;49.852;19.700;2023-04-09T14:16:28;20.90;;;13.13;;
21848;SDS011;11089;49.852;19.700;2023-04-09T14:19:29;21.00;;;13.57;;
21848;SDS011;11089;49.852;19.700;2023-04-09T14:22:30;19.60;;;13.18;;
21848;SDS011;11089;49.852;19.700;2023-04-09T14:25:31;20.23;;;12.95;;
21848;SDS011;11089;49.852;19.700;2023-04-09T14:28:32;20.40;;;12.77;;
21848;SDS011;11089;49.852;19.700;2023-04-09T14:31:33;23.40;;;14.10;;
21848;SDS011;11089;49.852;19.700;2023-04-09T14:34:34;23.40;;;13.77;;
21848;SDS011;11089;49.852;19.700;2023-04-09T14:37:35;22.55;;;12.82;;
21848;SDS011;11089;49.852;19.700;2023-04-09T14:40:39;20.17;;;13.45;;
21848;SDS011;11089;49.852;19.700;2023-04-09T14:43:41;20.35;;;13.50;;
21848;SDS011;11089;49.852;19.700;2023-04-09T14:46:42;21.98;;;13.63;;
21848;SDS011;11089;49.852;19.700;2023-04-09T14:49:43;18.67;;;12.13;;
21848;SDS011;11089;49.852;19.700;2023-04-09T14:52:44;19.60;;;12.65;;
21848;SDS011;11089;49.852;19.700;2023-04-09T14:55:47;19.88;;;12.32;;
21848;SDS011;11089;49.852;19.700;2023-04-09T14:58:48;21.58;;;13.00;;
21848;SDS011;11089;49.852;19.700;2023-04-09T15:01:49;22.40;;;13.25;;
21848;SDS011;11089;49.852;19.700;2023-04-09T15:04:50;17.33;;;11.70;;
21848;SDS011;11089;49.852;19.700;2023-04-09T15:07:51;18.42;;;11.65;;
21848;SDS011;11089;49.852;19.700;2023-04-09T15:10:53;18.25;;;11.80;;
21848;SDS011;11089;49.852;19.700;2023-04-09T15:13:54;18.95;;;11.93;;
21848;SDS011;11089;49.852;19.700;2023-04-09T15:16:56;21.80;;;13.02;;
21848;SDS011;11089;49.852;19.700;2023-04-09T15:19:57;18.45;;;12.43;;
21848;SDS011;11089;49.852;19.700;2023-04-09T15:22:58;19.88;;;12.82;;
21848;SDS011;11089;49.852;19.700;2023-04-09T15:25:59;21.08;;;12.18;;
21848;SDS011;11089;49.852;19.700;2023-04-09T15:29:01;19.58;;;13.15;;
21848;SDS011;11089;49.852;19.700;2023-04-09T15:32:06;19.45;;;12.68;;
21848;SDS011;11089;49.852;19.700;2023-04-09T15:35:07;18.30;;;12.63;;
21848;SDS011;11089;49.852;19.700;2023-04-09T15:38:08;22.80;;;13.25;;
21848;SDS011;11089;49.852;19.700;2023-04-09T15:41:09;22.30;;;13.45;;
21848;SDS011;11089;49.852;19.700;2023-04-09T15:44:10;19.27;;;12.90;;
21848;SDS011;11089;49.852;19.700;2023-04-09T15:47:11;20.05;;;12.88;;
21848;SDS011;11089;49.852;19.700;2023-04-09T15:50:12;21.30;;;13.25;;
21848;SDS011;11089;49.852;19.700;2023-04-09T15:53:13;23.88;;;13.23;;
21848;SDS011;11089;49.852;19.700;2023-04-09T15:56:15;20.77;;;12.88;;
21848;SDS011;11089;49.852;19.700;2023-04-09T15:59:16;20.45;;;12.45;;
21848;SDS011;11089;49.852;19.700;2023-04-09T16:02:18;21.33;;;13.52;;
21848;SDS011;11089;49.852;19.700;2023-04-09T16:05:19;22.30;;;14.05;;
21848;SDS011;11089;49.852;19.700;2023-04-09T16:08:20;21.92;;;13.07;;
21848;SDS011;11089;49.852;19.700;2023-04-09T16:11:21;21.40;;;13.20;;
21848;SDS011;11089;49.852;19.700;2023-04-09T16:14:22;23.38;;;13.55;;
21848;SDS011;11089;49.852;19.700;2023-04-09T16:17:23;19.40;;;13.02;;
21848;SDS011;11089;49.852;19.700;2023-04-09T16:20:24;21.63;;;13.10;;
21848;SDS011;11089;49.852;19.700;2023-04-09T16:23:25;21.10;;;12.90;;
21848;SDS011;11089;49.852;19.700;2023-04-09T16:26:26;20.50;;;13.57;;
21848;SDS011;11089;49.852;19.700;2023-04-09T16:29:27;21.27;;;13.95;;
21848;SDS011;11089;49.852;19.700;2023-04-09T16:32:28;24.58;;;14.27;;
21848;SDS011;11089;49.852;19.700;2023-04-09T16:35:29;25.55;;;14.57;;
21848;SDS011;11089;49.852;19.700;2023-04-09T16:38:30;62.95;;;24.65;;
21848;SDS011;11089;49.852;19.700;2023-04-09T16:41:31;114.20;;;37.30;;
21848;SDS011;11089;49.852;19.700;2023-04-09T16:44:32;94.35;;;30.42;;
21848;SDS011;11089;49.852;19.700;2023-04-09T16:47:33;47.92;;;21.33;;
21848;SDS011;11089;49.852;19.700;2023-04-09T16:50:35;50.30;;;22.55;;
21848;SDS011;11089;49.852;19.700;2023-04-09T16:53:36;66.65;;;24.48;;
21848;SDS011;11089;49.852;19.700;2023-04-09T16:56:37;76.88;;;29.00;;
21848;SDS011;11089;49.852;19.700;2023-04-09T16:59:38;79.43;;;30.80;;
21848;SDS011;11089;49.852;19.700;2023-04-09T17:02:41;79.82;;;31.25;;
21848;SDS011;11089;49.852;19.700;2023-04-09T17:05:44;76.53;;;32.80;;
21848;SDS011;11089;49.852;19.700;2023-04-09T17:08:48;54.28;;;25.05;;
21848;SDS011;11089;49.852;19.700;2023-04-09T17:11:49;44.90;;;20.88;;
21848;SDS011;11089;49.852;19.700;2023-04-09T17:14:52;36.35;;;18.13;;
21848;SDS011;11089;49.852;19.700;2023-04-09T17:17:53;25.02;;;14.95;;
21848;SDS011;11089;49.852;19.700;2023-04-09T17:20:55;27.05;;;14.18;;
21848;SDS011;11089;49.852;19.700;2023-04-09T17:23:56;25.38;;;14.57;;
21848;SDS011;11089;49.852;19.700;2023-04-09T17:26:57;27.60;;;15.65;;
21848;SDS011;11089;49.852;19.700;2023-04-09T17:29:58;35.72;;;18.13;;
21848;SDS011;11089;49.852;19.700;2023-04-09T17:32:59;35.60;;;17.52;;
21848;SDS011;11089;49.852;19.700;2023-04-09T17:36:00;30.02;;;16.45;;
21848;SDS011;11089;49.852;19.700;2023-04-09T17:39:01;24.33;;;13.60;;
21848;SDS011;11089;49.852;19.700;2023-04-09T17:42:02;23.33;;;13.40;;
21848;SDS011;11089;49.852;19.700;2023-04-09T17:45:05;27.38;;;15.40;;
21848;SDS011;11089;49.852;19.700;2023-04-09T17:48:07;26.88;;;14.70;;
21848;SDS011;11089;49.852;19.700;2023-04-09T17:51:12;26.50;;;14.48;;